x

N01 - Northeast Channel (44024) Wave Buoy

9:04am - Thu 25th May 2017 All times are ADT. -3 hours from GMT.

  • Sig Wave height 5.6ft
  • Peak Period 11s
  • Wind
    18mph, 22mph gusts
  • Sea Temp 44°f
  • Air Temp 47°f
  • Sea Pressure 1012.6mb
  • N01 - Northeast Channel
  • N01 - Northeast Channel

More Historic Weather Station data

Upgrade to MSW Pro to gain access to the past 30 days of data for over 8000 Wavebouys and Weather Stations around the globe.

Join Pro

Comparision Forecast

View Surf forecast
   
Thu 05/25 9:04am 5.5ft 11s 18 22 mph 1012.6mb 44f 47f
8:04am 6ft 11s 16 18 mph 1012.5mb 43f 47f
7:04am 9ft 11s 13 18 mph 1012.3mb 44f 47f
6:04am 8ft 11s 13 16 mph 1011.9mb 44f 46f
5:04am 7ft 11s 16 20 mph 1011.5mb 44f 46f
4:04am 7ft 11s 13 16 mph 1011.8mb 45f 46f
3:04am 5ft 11s 9 11 mph 1011.5mb 45f 46f
2:04am 5ft 8s 9 11 mph 1011.3mb 45f 46f
1:04am 4.5ft 8s 9 11 mph 1010.8mb 45f 47f
12:04am 3.5ft 8s 9 11 mph 1010.3mb 45f 47f
Wed 05/24 11:04pm 3.5ft 8s 9 11 mph 1010.1mb 45f 46f
10:04pm 4ft 8s 11 13 mph 1009.1mb 45f 47f
9:04pm 3.5ft 8s 9 9 mph 1009.8mb 45f 47f
8:04pm 4.5ft 8s 11 13 mph 1009.1mb 44f 46f
7:04pm 6ft 8s 11 11 mph 1008.2mb 44f 46f
6:04pm 5ft 8s 11 13 mph 1008.1mb 44f 47f
5:04pm 6ft 8s 9 11 mph 1008mb 44f 47f
4:04pm 5ft 8s 9 13 mph 1008.1mb 44f 47f
3:04pm 5ft 8s 7 7 mph 1008.1mb 44f 47f
2:04pm 4.5ft 8s 7 7 mph 1008.2mb 45f 47f
1:04pm 5ft 8s 7 9 mph 1008.5mb 45f 47f
12:04pm 4.5ft 8s 7 9 mph 1009.1mb 45f 47f
11:04am 4.5ft 8s 2 7 mph 1008.3mb 45f 46f
10:04am 3.5ft 8s 2 4 mph 1009.1mb 44f 46f
9:04am 4ft 8s 4 7 mph 1009.9mb 43f 45f
8:04am 4ft 6s 2 4 mph 1009.3mb 43f 45f
7:04am 5ft 6s 2 2 mph 1009mb 44f 45f
6:04am 4ft 6s 4 4 mph 1008.3mb 43f 45f
5:04am 4.5ft 6s 7 7 mph 1008.1mb 43f 44f
4:04am 5ft 6s 9 11 mph 1008.1mb 44f 44f
3:04am 4.5ft 6s 9 11 mph 1008.6mb 44f 44f
2:04am 3.5ft 8s 11 13 mph 1008.5mb 44f 44f
1:04am 3.5ft 8s 13 16 mph 1007.7mb 43f 44f
12:04am 3.5ft 6s 16 18 mph 1007.2mb 43f 44f
Tue 05/23 11:04pm 3.5ft 6s 11 13 mph 1007.5mb 43f 45f
10:04pm 4.5ft 6s 7 9 mph 1007.2mb 43f 47f
9:04pm 4ft 6s  -  2 mph 1007.3mb 44f 47f
8:04pm 4ft 5s 4 7 mph 1007.6mb 44f 48f
7:04pm 5ft 5s 7 9 mph 1007.9mb 44f 49f
6:04pm 5ft 5s 11 13 mph 1008.2mb 43f 48f
5:04pm 4.5ft 5s 18 20 mph 1008.6mb 43f 49f
4:04pm 3.5ft 5s 18 20 mph 1009.2mb 43f 49f
3:04pm 3.5ft 5s 13 16 mph 1010.3mb 44f 49f
2:04pm 3.5ft 5s 16 18 mph 1011.2mb 44f 50f
1:04pm 3.5ft 5s 18 20 mph 1012mb 44f 49f
12:04pm 3ft 4s 20 22 mph 1012.3mb 44f 49f
11:04am 3.5ft 4s 18 20 mph 1012.8mb 44f 49f
10:04am 3ft 4s 18 20 mph 1013.5mb 44f 49f
9:04am 2.5ft 4s 20 25 mph 1014.2mb 44f 49f
8:04am 2ft 3s 20 22 mph 1014.6mb 44f 49f
7:04am 2ft 4s 18 20 mph 1015.1mb 44f 48f
6:04am 1.6ft 3s 13 16 mph 1015.4mb 44f 47f
5:04am 1.6ft 3s 18 20 mph 1016.2mb 44f 48f
4:04am 2ft 8s 11 13 mph 1016.8mb 44f 48f
3:04am 1.6ft 6s 11 13 mph 1017.4mb 44f 47f
2:04am 1.6ft 8s 9 11 mph 1018.4mb 44f 47f
1:04am 1.3ft 8s 9 9 mph 1018.8mb 44f 47f
12:04am 1.3ft 8s 9 9 mph 1019.3mb 44f 47f
Mon 05/22 11:04pm 1.3ft 8s 7 7 mph 1019.9mb 44f 46f
10:04pm 1.3ft 8s 7 9 mph 1020.2mb 44f 46f
9:04pm 1.3ft 8s 7 7 mph 1020mb 44f 47f
8:04pm 1.3ft 8s 7 7 mph 1020.3mb 45f 46f
7:04pm 1.6ft 8s 2 4 mph 1020.5mb 44f 48f
6:04pm 2ft 8s 2 4 mph 1020.7mb 45f 48f
5:04pm 2ft 6s 4 4 mph 1021.5mb 45f 48f
4:04pm 2.5ft 8s 7 7 mph 1021.7mb 44f 48f
3:04pm 2ft 5s 7 7 mph 1022.4mb 44f 47f
2:04pm 2ft 6s 9 11 mph 1022.7mb 44f 47f
1:04pm 1.6ft 8s 9 11 mph 1023.1mb 43f 47f
12:04pm 2ft 8s 7 9 mph 1023.5mb 43f 46f
11:04am 1.6ft 11s 9 11 mph 1024.1mb 44f 46f
10:04am 1.3ft 11s 7 7 mph 1023.9mb 44f 46f
9:04am 1.3ft 8s 7 9 mph 1024mb 44f 46f
8:04am 1.3ft 11s 9 11 mph 1023.9mb 44f 45f
7:04am 0.7ft  -  4 4 mph 1023.3mb 44f 45f
6:04am 1.3ft 8s 4 4 mph 1023.1mb 42f 44f
5:04am 1.3ft 4s 4 4 mph 1022.8mb 42f 44f
4:04am 1.3ft 4s 2 4 mph 1022.8mb 43f 45f
3:04am 2ft 4s 4 9 mph 1022.9mb 43f 45f
2:04am 2ft 4s 11 16 mph 1023.4mb 43f 46f
1:04am 2.5ft 4s 13 13 mph 1023.3mb 43f 47f
12:04am 2.5ft 4s 11 13 mph 1023.7mb 43f 46f
Sun 05/21 11:04pm 2.5ft 5s 13 16 mph 1023.9mb 43f 46f
10:04pm 2.5ft 5s 13 16 mph 1023.6mb 44f 46f
9:04pm 2.5ft 4s 13 16 mph 1023.1mb 44f 47f
8:04pm 2.5ft 5s 16 18 mph 1022.6mb 44f 46f
7:04pm 2ft 4s 16 18 mph 1022.6mb 44f 47f
6:04pm 2.5ft 4s 13 16 mph 1022.8mb 43f 46f
5:04pm 2.5ft 4s 16 18 mph 1023.1mb 43f 46f
4:04pm 2ft 4s 16 18 mph 1023.3mb 43f 46f
3:04pm 2ft 4s 16 18 mph 1024mb 43f 46f